sensor_id;sensor_type;location;lat;lon;timestamp;temperature;humidity
546;DHT22;259;53.304;9.816;2023-04-15T00:00:29;16.30;64.30
546;DHT22;259;53.304;9.816;2023-04-15T00:02:55;16.20;64.20
546;DHT22;259;53.304;9.816;2023-04-15T00:05:21;16.20;64.30
546;DHT22;259;53.304;9.816;2023-04-15T00:07:46;16.20;64.30
546;DHT22;259;53.304;9.816;2023-04-15T00:10:12;16.20;64.40
546;DHT22;259;53.304;9.816;2023-04-15T00:12:39;16.20;64.40
546;DHT22;259;53.304;9.816;2023-04-15T00:15:07;16.10;64.30
546;DHT22;259;53.304;9.816;2023-04-15T00:17:33;16.10;64.40
546;DHT22;259;53.304;9.816;2023-04-15T00:20:00;16.10;64.40
546;DHT22;259;53.304;9.816;2023-04-15T00:22:26;16.10;64.50
546;DHT22;259;53.304;9.816;2023-04-15T00:24:52;16.10;64.60
546;DHT22;259;53.304;9.816;2023-04-15T00:27:18;16.10;64.50
546;DHT22;259;53.304;9.816;2023-04-15T00:29:44;16.10;64.60
546;DHT22;259;53.304;9.816;2023-04-15T00:32:10;16.00;64.50
546;DHT22;259;53.304;9.816;2023-04-15T00:34:36;16.00;65.30
546;DHT22;259;53.304;9.816;2023-04-15T00:37:02;16.00;64.50
546;DHT22;259;53.304;9.816;2023-04-15T00:39:27;16.00;64.60
546;DHT22;259;53.304;9.816;2023-04-15T00:41:54;16.00;65.40
546;DHT22;259;53.304;9.816;2023-04-15T00:44:20;16.00;64.70
546;DHT22;259;53.304;9.816;2023-04-15T00:46:47;15.90;64.50
546;DHT22;259;53.304;9.816;2023-04-15T00:49:15;15.90;64.60
546;DHT22;259;53.304;9.816;2023-04-15T00:51:42;15.90;64.60
546;DHT22;259;53.304;9.816;2023-04-15T00:54:09;15.90;64.60
546;DHT22;259;53.304;9.816;2023-04-15T00:56:37;15.90;64.70
546;DHT22;259;53.304;9.816;2023-04-15T00:59:04;15.90;64.80
546;DHT22;259;53.304;9.816;2023-04-15T01:01:34;15.80;64.70
546;DHT22;259;53.304;9.816;2023-04-15T01:04:01;15.80;64.70
546;DHT22;259;53.304;9.816;2023-04-15T01:06:27;15.80;65.50
546;DHT22;259;53.304;9.816;2023-04-15T01:08:54;15.80;64.70
546;DHT22;259;53.304;9.816;2023-04-15T01:11:20;15.80;64.80
546;DHT22;259;53.304;9.816;2023-04-15T01:13:46;15.80;64.80
546;DHT22;259;53.304;9.816;2023-04-15T01:16:13;15.70;64.80
546;DHT22;259;53.304;9.816;2023-04-15T01:18:39;15.70;64.80
546;DHT22;259;53.304;9.816;2023-04-15T01:21:05;15.70;64.90
546;DHT22;259;53.304;9.816;2023-04-15T01:23:32;15.70;64.90
546;DHT22;259;53.304;9.816;2023-04-15T01:26:01;15.60;64.90
546;DHT22;259;53.304;9.816;2023-04-15T01:28:28;15.60;65.00
546;DHT22;259;53.304;9.816;2023-04-15T01:31:09;15.60;65.10
546;DHT22;259;53.304;9.816;2023-04-15T01:33:37;15.60;65.10
546;DHT22;259;53.304;9.816;2023-04-15T01:36:04;15.60;65.10
546;DHT22;259;53.304;9.816;2023-04-15T01:38:31;15.60;65.10
546;DHT22;259;53.304;9.816;2023-04-15T01:40:57;15.60;65.10
546;DHT22;259;53.304;9.816;2023-04-15T01:43:24;15.60;65.10
546;DHT22;259;53.304;9.816;2023-04-15T01:45:50;15.60;65.10
546;DHT22;259;53.304;9.816;2023-04-15T01:48:16;15.60;65.10
546;DHT22;259;53.304;9.816;2023-04-15T01:50:42;15.50;65.00
546;DHT22;259;53.304;9.816;2023-04-15T01:53:08;15.50;65.00
546;DHT22;259;53.304;9.816;2023-04-15T01:55:34;15.50;65.10
546;DHT22;259;53.304;9.816;2023-04-15T01:57:59;15.50;65.10
546;DHT22;259;53.304;9.816;2023-04-15T02:00:25;15.50;65.10
546;DHT22;259;53.304;9.816;2023-04-15T02:02:51;15.50;65.10
546;DHT22;259;53.304;9.816;2023-04-15T02:05:17;15.50;65.20
546;DHT22;259;53.304;9.816;2023-04-15T02:07:43;15.40;65.90
546;DHT22;259;53.304;9.816;2023-04-15T02:10:09;15.40;65.20
546;DHT22;259;53.304;9.816;2023-04-15T02:12:37;15.40;65.10
546;DHT22;259;53.304;9.816;2023-04-15T02:15:04;15.40;66.00
546;DHT22;259;53.304;9.816;2023-04-15T02:17:32;15.40;65.20
546;DHT22;259;53.304;9.816;2023-04-15T02:19:59;15.40;65.30
546;DHT22;259;53.304;9.816;2023-04-15T02:22:25;15.40;65.30
546;DHT22;259;53.304;9.816;2023-04-15T02:24:51;15.40;65.30
546;DHT22;259;53.304;9.816;2023-04-15T02:27:17;15.40;65.30
546;DHT22;259;53.304;9.816;2023-04-15T02:29:44;15.30;65.20
546;DHT22;259;53.304;9.816;2023-04-15T02:32:11;15.30;65.30
546;DHT22;259;53.304;9.816;2023-04-15T02:34:38;15.30;65.40
546;DHT22;259;53.304;9.816;2023-04-15T02:37:07;15.30;65.40
546;DHT22;259;53.304;9.816;2023-04-15T02:39:33;15.30;65.40
546;DHT22;259;53.304;9.816;2023-04-15T02:41:59;15.20;65.30
546;DHT22;259;53.304;9.816;2023-04-15T02:44:28;15.20;65.30
546;DHT22;259;53.304;9.816;2023-04-15T02:46:55;15.20;65.40
546;DHT22;259;53.304;9.816;2023-04-15T02:49:23;15.20;65.40
546;DHT22;259;53.304;9.816;2023-04-15T02:51:49;15.20;65.40
546;DHT22;259;53.304;9.816;2023-04-15T02:54:19;15.20;65.50
546;DHT22;259;53.304;9.816;2023-04-15T02:56:45;15.20;65.50
546;DHT22;259;53.304;9.816;2023-04-15T02:59:11;15.10;65.40
546;DHT22;259;53.304;9.816;2023-04-15T03:01:37;15.10;65.40
546;DHT22;259;53.304;9.816;2023-04-15T03:04:03;15.10;65.50
546;DHT22;259;53.304;9.816;2023-04-15T03:06:29;15.10;65.50
546;DHT22;259;53.304;9.816;2023-04-15T03:08:55;15.10;65.50
546;DHT22;259;53.304;9.816;2023-04-15T03:11:21;15.10;65.50
546;DHT22;259;53.304;9.816;2023-04-15T03:13:47;15.10;65.50
546;DHT22;259;53.304;9.816;2023-04-15T03:16:13;15.10;65.60
546;DHT22;259;53.304;9.816;2023-04-15T03:18:39;15.00;65.50
546;DHT22;259;53.304;9.816;2023-04-15T03:21:05;15.00;65.50
546;DHT22;259;53.304;9.816;2023-04-15T03:23:31;15.00;65.60
546;DHT22;259;53.304;9.816;2023-04-15T03:25:56;15.00;65.60
546;DHT22;259;53.304;9.816;2023-04-15T03:28:24;15.00;65.60
546;DHT22;259;53.304;9.816;2023-04-15T03:30:50;15.00;65.60
546;DHT22;259;53.304;9.816;2023-04-15T03:33:15;15.00;65.70
546;DHT22;259;53.304;9.816;2023-04-15T03:35:41;14.90;65.60
546;DHT22;259;53.304;9.816;2023-04-15T03:38:07;14.90;65.60
546;DHT22;259;53.304;9.816;2023-04-15T03:40:33;14.90;65.60
546;DHT22;259;53.304;9.816;2023-04-15T03:42:58;14.90;65.70
546;DHT22;259;53.304;9.816;2023-04-15T03:45:24;14.90;65.70
546;DHT22;259;53.304;9.816;2023-04-15T03:47:50;14.90;65.70
546;DHT22;259;53.304;9.816;2023-04-15T03:50:16;14.90;65.70
546;DHT22;259;53.304;9.816;2023-04-15T03:52:41;14.80;65.70
546;DHT22;259;53.304;9.816;2023-04-15T03:55:08;14.80;65.70
546;DHT22;259;53.304;9.816;2023-04-15T03:57:34;14.80;65.70
546;DHT22;259;53.304;9.816;2023-04-15T04:00:07;14.80;65.80
546;DHT22;259;53.304;9.816;2023-04-15T04:02:35;14.80;65.90
546;DHT22;259;53.304;9.816;2023-04-15T04:05:00;14.80;66.00
546;DHT22;259;53.304;9.816;2023-04-15T04:07:26;14.80;66.20
546;DHT22;259;53.304;9.816;2023-04-15T04:09:52;14.70;66.00
546;DHT22;259;53.304;9.816;2023-04-15T04:12:17;14.70;66.10
546;DHT22;259;53.304;9.816;2023-04-15T04:14:43;14.70;66.10
546;DHT22;259;53.304;9.816;2023-04-15T04:17:09;14.70;66.10
546;DHT22;259;53.304;9.816;2023-04-15T04:19:35;14.70;66.10
546;DHT22;259;53.304;9.816;2023-04-15T04:22:01;14.70;66.00
546;DHT22;259;53.304;9.816;2023-04-15T04:24:26;14.70;66.00
546;DHT22;259;53.304;9.816;2023-04-15T04:26:52;14.70;66.10
546;DHT22;259;53.304;9.816;2023-04-15T04:29:18;14.70;66.10
546;DHT22;259;53.304;9.816;2023-04-15T04:31:43;14.70;66.60
546;DHT22;259;53.304;9.816;2023-04-15T04:34:09;14.60;66.00
546;DHT22;259;53.304;9.816;2023-04-15T04:36:35;14.60;66.10
546;DHT22;259;53.304;9.816;2023-04-15T04:39:01;14.60;66.10
546;DHT22;259;53.304;9.816;2023-04-15T04:41:26;14.60;66.10
546;DHT22;259;53.304;9.816;2023-04-15T04:43:52;14.60;66.20
546;DHT22;259;53.304;9.816;2023-04-15T04:46:18;14.60;66.20
546;DHT22;259;53.304;9.816;2023-04-15T04:48:44;14.60;66.20
546;DHT22;259;53.304;9.816;2023-04-15T04:51:10;14.60;66.20
546;DHT22;259;53.304;9.816;2023-04-15T04:53:36;14.60;66.30
546;DHT22;259;53.304;9.816;2023-04-15T04:56:02;14.50;66.20
546;DHT22;259;53.304;9.816;2023-04-15T04:58:28;14.50;66.20
546;DHT22;259;53.304;9.816;2023-04-15T05:00:54;14.50;66.20
546;DHT22;259;53.304;9.816;2023-04-15T05:03:21;14.50;66.30
546;DHT22;259;53.304;9.816;2023-04-15T05:05:46;14.50;66.30
546;DHT22;259;53.304;9.816;2023-04-15T05:08:14;14.50;66.40
546;DHT22;259;53.304;9.816;2023-04-15T05:10:40;14.50;66.40
546;DHT22;259;53.304;9.816;2023-04-15T05:13:06;14.40;67.00
546;DHT22;259;53.304;9.816;2023-04-15T05:15:31;14.40;66.40
546;DHT22;259;53.304;9.816;2023-04-15T05:17:59;14.50;66.50
546;DHT22;259;53.304;9.816;2023-04-15T05:20:25;14.40;66.40
546;DHT22;259;53.304;9.816;2023-04-15T05:22:50;14.40;66.40
546;DHT22;259;53.304;9.816;2023-04-15T05:25:16;14.40;66.40
546;DHT22;259;53.304;9.816;2023-04-15T05:27:42;14.40;66.40
546;DHT22;259;53.304;9.816;2023-04-15T05:30:08;14.40;66.50
546;DHT22;259;53.304;9.816;2023-04-15T05:32:34;14.40;66.50
546;DHT22;259;53.304;9.816;2023-04-15T05:35:00;14.40;66.50
546;DHT22;259;53.304;9.816;2023-04-15T05:37:25;14.40;66.50
546;DHT22;259;53.304;9.816;2023-04-15T05:39:51;14.40;66.60
546;DHT22;259;53.304;9.816;2023-04-15T05:42:17;14.40;66.60
546;DHT22;259;53.304;9.816;2023-04-15T05:44:42;14.30;66.50
546;DHT22;259;53.304;9.816;2023-04-15T05:47:08;14.30;66.50
546;DHT22;259;53.304;9.816;2023-04-15T05:49:35;14.30;66.50
546;DHT22;259;53.304;9.816;2023-04-15T05:52:01;14.30;66.50
546;DHT22;259;53.304;9.816;2023-04-15T05:54:27;14.30;66.50
546;DHT22;259;53.304;9.816;2023-04-15T05:56:53;14.30;66.60
546;DHT22;259;53.304;9.816;2023-04-15T05:59:19;14.30;66.70
546;DHT22;259;53.304;9.816;2023-04-15T06:01:45;14.30;66.70
546;DHT22;259;53.304;9.816;2023-04-15T06:04:10;14.20;66.50
546;DHT22;259;53.304;9.816;2023-04-15T06:06:36;14.20;66.70
546;DHT22;259;53.304;9.816;2023-04-15T06:09:02;14.20;66.70
546;DHT22;259;53.304;9.816;2023-04-15T06:11:29;14.20;66.70
546;DHT22;259;53.304;9.816;2023-04-15T06:13:54;14.20;66.70
546;DHT22;259;53.304;9.816;2023-04-15T06:16:21;14.20;66.70
546;DHT22;259;53.304;9.816;2023-04-15T06:18:47;14.20;66.80
546;DHT22;259;53.304;9.816;2023-04-15T06:21:14;14.20;66.80
546;DHT22;259;53.304;9.816;2023-04-15T06:23:40;14.10;66.70
546;DHT22;259;53.304;9.816;2023-04-15T06:26:06;14.20;66.80
546;DHT22;259;53.304;9.816;2023-04-15T06:28:32;14.10;66.80
546;DHT22;259;53.304;9.816;2023-04-15T06:30:58;14.10;66.80
546;DHT22;259;53.304;9.816;2023-04-15T06:33:25;14.10;66.90
546;DHT22;259;53.304;9.816;2023-04-15T06:35:51;14.10;66.80
546;DHT22;259;53.304;9.816;2023-04-15T06:38:17;14.10;66.90
546;DHT22;259;53.304;9.816;2023-04-15T06:40:42;14.10;66.90
546;DHT22;259;53.304;9.816;2023-04-15T06:43:08;14.10;66.90
546;DHT22;259;53.304;9.816;2023-04-15T06:45:34;14.10;66.90
546;DHT22;259;53.304;9.816;2023-04-15T06:48:00;14.10;67.00
546;DHT22;259;53.304;9.816;2023-04-15T06:50:26;14.00;66.90
546;DHT22;259;53.304;9.816;2023-04-15T06:52:53;14.00;66.90
546;DHT22;259;53.304;9.816;2023-04-15T06:55:19;14.00;66.90
546;DHT22;259;53.304;9.816;2023-04-15T06:57:45;14.00;67.10
546;DHT22;259;53.304;9.816;2023-04-15T07:00:11;14.00;67.10
546;DHT22;259;53.304;9.816;2023-04-15T07:02:37;14.00;67.30
546;DHT22;259;53.304;9.816;2023-04-15T07:05:04;14.00;67.30
546;DHT22;259;53.304;9.816;2023-04-15T07:07:31;14.00;67.40
546;DHT22;259;53.304;9.816;2023-04-15T07:09:57;14.00;67.50
546;DHT22;259;53.304;9.816;2023-04-15T07:12:23;14.00;67.40
546;DHT22;259;53.304;9.816;2023-04-15T07:14:48;14.00;67.40
546;DHT22;259;53.304;9.816;2023-04-15T07:17:14;14.00;67.40
546;DHT22;259;53.304;9.816;2023-04-15T07:19:40;14.00;67.40
546;DHT22;259;53.304;9.816;2023-04-15T07:22:06;13.90;67.30
546;DHT22;259;53.304;9.816;2023-04-15T07:24:32;13.90;67.20
546;DHT22;259;53.304;9.816;2023-04-15T07:26:57;13.90;67.40
546;DHT22;259;53.304;9.816;2023-04-15T07:29:24;13.90;67.30
546;DHT22;259;53.304;9.816;2023-04-15T07:31:50;13.90;67.20
546;DHT22;259;53.304;9.816;2023-04-15T07:34:16;13.90;67.30
546;DHT22;259;53.304;9.816;2023-04-15T07:36:42;13.90;67.30
546;DHT22;259;53.304;9.816;2023-04-15T07:39:07;13.90;67.30
546;DHT22;259;53.304;9.816;2023-04-15T07:41:33;13.90;67.40
546;DHT22;259;53.304;9.816;2023-04-15T07:43:59;13.90;67.40
546;DHT22;259;53.304;9.816;2023-04-15T07:46:25;13.90;67.40
546;DHT22;259;53.304;9.816;2023-04-15T07:48:52;13.90;67.40
546;DHT22;259;53.304;9.816;2023-04-15T07:51:19;13.90;67.50
546;DHT22;259;53.304;9.816;2023-04-15T07:53:48;13.80;67.40
546;DHT22;259;53.304;9.816;2023-04-15T07:56:15;13.80;67.40
546;DHT22;259;53.304;9.816;2023-04-15T07:58:40;13.80;67.60
546;DHT22;259;53.304;9.816;2023-04-15T08:01:07;13.80;68.10
546;DHT22;259;53.304;9.816;2023-04-15T08:03:32;13.90;68.10
546;DHT22;259;53.304;9.816;2023-04-15T08:05:58;13.90;67.90
546;DHT22;259;53.304;9.816;2023-04-15T08:08:24;13.80;67.90
546;DHT22;259;53.304;9.816;2023-04-15T08:10:50;13.80;67.80
546;DHT22;259;53.304;9.816;2023-04-15T08:13:16;13.80;67.70
546;DHT22;259;53.304;9.816;2023-04-15T08:15:42;13.80;67.80
546;DHT22;259;53.304;9.816;2023-04-15T08:18:08;13.80;67.80
546;DHT22;259;53.304;9.816;2023-04-15T08:20:34;13.80;67.60
546;DHT22;259;53.304;9.816;2023-04-15T08:22:59;13.80;67.80
546;DHT22;259;53.304;9.816;2023-04-15T08:25:25;13.80;67.80
546;DHT22;259;53.304;9.816;2023-04-15T08:27:54;13.80;67.80
546;DHT22;259;53.304;9.816;2023-04-15T08:30:20;13.80;67.70
546;DHT22;259;53.304;9.816;2023-04-15T08:32:45;13.80;67.80
546;DHT22;259;53.304;9.816;2023-04-15T08:35:12;13.70;67.70
546;DHT22;259;53.304;9.816;2023-04-15T08:37:38;13.70;67.60
546;DHT22;259;53.304;9.816;2023-04-15T08:40:04;13.70;67.60
546;DHT22;259;53.304;9.816;2023-04-15T08:42:31;13.80;67.80
546;DHT22;259;53.304;9.816;2023-04-15T08:45:03;13.80;67.80
546;DHT22;259;53.304;9.816;2023-04-15T08:47:30;13.80;67.90
546;DHT22;259;53.304;9.816;2023-04-15T08:49:57;13.70;67.70
546;DHT22;259;53.304;9.816;2023-04-15T08:52:25;13.70;67.80
546;DHT22;259;53.304;9.816;2023-04-15T08:54:54;13.70;67.80
546;DHT22;259;53.304;9.816;2023-04-15T08:57:25;13.70;67.70
546;DHT22;259;53.304;9.816;2023-04-15T08:59:53;13.70;67.80
546;DHT22;259;53.304;9.816;2023-04-15T09:02:20;13.70;67.60
546;DHT22;259;53.304;9.816;2023-04-15T09:04:48;13.70;67.70
546;DHT22;259;53.304;9.816;2023-04-15T09:07:13;13.70;67.80
546;DHT22;259;53.304;9.816;2023-04-15T09:09:39;13.70;67.80
546;DHT22;259;53.304;9.816;2023-04-15T09:12:07;13.70;67.90
546;DHT22;259;53.304;9.816;2023-04-15T09:14:33;13.70;67.90
546;DHT22;259;53.304;9.816;2023-04-15T09:17:01;13.70;67.90
546;DHT22;259;53.304;9.816;2023-04-15T09:19:28;13.70;67.90
546;DHT22;259;53.304;9.816;2023-04-15T09:21:56;13.70;67.90
546;DHT22;259;53.304;9.816;2023-04-15T09:24:22;13.70;67.90
546;DHT22;259;53.304;9.816;2023-04-15T09:26:52;13.70;68.00
546;DHT22;259;53.304;9.816;2023-04-15T09:29:23;13.70;67.90
546;DHT22;259;53.304;9.816;2023-04-15T09:31:50;13.70;67.90
546;DHT22;259;53.304;9.816;2023-04-15T09:34:15;13.60;67.90
546;DHT22;259;53.304;9.816;2023-04-15T09:39:10;13.60;68.00
546;DHT22;259;53.304;9.816;2023-04-15T09:41:36;13.60;67.90
546;DHT22;259;53.304;9.816;2023-04-15T09:44:03;13.60;68.00
546;DHT22;259;53.304;9.816;2023-04-15T09:46:42;13.60;68.00
546;DHT22;259;53.304;9.816;2023-04-15T09:49:10;13.70;68.10
546;DHT22;259;53.304;9.816;2023-04-15T09:51:36;13.60;68.20
546;DHT22;259;53.304;9.816;2023-04-15T09:54:02;13.60;68.10
546;DHT22;259;53.304;9.816;2023-04-15T09:56:35;13.60;68.30
546;DHT22;259;53.304;9.816;2023-04-15T09:59:04;13.60;68.20
546;DHT22;259;53.304;9.816;2023-04-15T10:01:30;13.60;68.30
546;DHT22;259;53.304;9.816;2023-04-15T10:03:56;13.60;68.20
546;DHT22;259;53.304;9.816;2023-04-15T10:06:25;13.60;68.30
546;DHT22;259;53.304;9.816;2023-04-15T10:08:53;13.60;68.50
546;DHT22;259;53.304;9.816;2023-04-15T10:11:20;13.60;68.60
546;DHT22;259;53.304;9.816;2023-04-15T10:13:49;13.60;68.60
546;DHT22;259;53.304;9.816;2023-04-15T10:16:18;13.60;68.70
546;DHT22;259;53.304;9.816;2023-04-15T10:18:47;13.60;68.80
546;DHT22;259;53.304;9.816;2023-04-15T10:21:17;13.60;68.90
546;DHT22;259;53.304;9.816;2023-04-15T10:23:47;13.60;68.90
546;DHT22;259;53.304;9.816;2023-04-15T10:26:14;13.60;68.90
546;DHT22;259;53.304;9.816;2023-04-15T10:28:42;13.60;68.80
546;DHT22;259;53.304;9.816;2023-04-15T10:31:11;13.60;68.90
546;DHT22;259;53.304;9.816;2023-04-15T10:33:38;13.60;68.90
546;DHT22;259;53.304;9.816;2023-04-15T10:36:05;13.60;68.80
546;DHT22;259;53.304;9.816;2023-04-15T10:38:43;13.60;68.70
546;DHT22;259;53.304;9.816;2023-04-15T10:41:24;13.60;68.70
546;DHT22;259;53.304;9.816;2023-04-15T10:44:03;13.60;68.60
546;DHT22;259;53.304;9.816;2023-04-15T10:46:40;13.60;68.70
546;DHT22;259;53.304;9.816;2023-04-15T10:49:12;13.70;69.50
546;DHT22;259;53.304;9.816;2023-04-15T10:51:45;13.70;70.50
546;DHT22;259;53.304;9.816;2023-04-15T10:54:37;13.70;70.40
546;DHT22;259;53.304;9.816;2023-04-15T10:59:36;13.70;70.80
546;DHT22;259;53.304;9.816;2023-04-15T11:02:04;13.70;71.30
546;DHT22;259;53.304;9.816;2023-04-15T11:04:56;13.70;71.00
546;DHT22;259;53.304;9.816;2023-04-15T11:12:43;13.70;70.80
546;DHT22;259;53.304;9.816;2023-04-15T11:15:32;13.70;70.60
546;DHT22;259;53.304;9.816;2023-04-15T11:18:11;13.70;70.50
546;DHT22;259;53.304;9.816;2023-04-15T11:20:38;13.70;70.40
546;DHT22;259;53.304;9.816;2023-04-15T11:23:05;13.70;70.40
546;DHT22;259;53.304;9.816;2023-04-15T11:25:34;13.70;70.20
546;DHT22;259;53.304;9.816;2023-04-15T11:28:02;13.70;70.30
546;DHT22;259;53.304;9.816;2023-04-15T11:30:33;13.70;70.20
546;DHT22;259;53.304;9.816;2023-04-15T11:33:02;13.70;70.20
546;DHT22;259;53.304;9.816;2023-04-15T11:35:29;13.70;70.20
546;DHT22;259;53.304;9.816;2023-04-15T11:37:55;13.70;70.20
546;DHT22;259;53.304;9.816;2023-04-15T11:40:25;13.70;70.20
546;DHT22;259;53.304;9.816;2023-04-15T11:43:12;13.70;70.20
546;DHT22;259;53.304;9.816;2023-04-15T11:45:49;13.70;70.20
546;DHT22;259;53.304;9.816;2023-04-15T11:48:22;13.70;70.10
546;DHT22;259;53.304;9.816;2023-04-15T11:53:46;13.70;70.10
546;DHT22;259;53.304;9.816;2023-04-15T11:56:22;13.70;70.20
546;DHT22;259;53.304;9.816;2023-04-15T11:58:56;13.70;70.10
546;DHT22;259;53.304;9.816;2023-04-15T12:01:31;13.70;70.10
546;DHT22;259;53.304;9.816;2023-04-15T12:04:01;13.70;70.10
546;DHT22;259;53.304;9.816;2023-04-15T12:06:32;13.70;70.10
546;DHT22;259;53.304;9.816;2023-04-15T12:14:29;13.70;70.20
546;DHT22;259;53.304;9.816;2023-04-15T12:17:02;13.70;70.80
546;DHT22;259;53.304;9.816;2023-04-15T12:19:34;13.70;70.10
546;DHT22;259;53.304;9.816;2023-04-15T12:24:32;13.70;70.20
546;DHT22;259;53.304;9.816;2023-04-15T12:27:10;13.80;70.50
546;DHT22;259;53.304;9.816;2023-04-15T12:29:38;13.80;70.60
546;DHT22;259;53.304;9.816;2023-04-15T12:32:09;13.80;70.50
546;DHT22;259;53.304;9.816;2023-04-15T12:34:39;13.80;70.40
546;DHT22;259;53.304;9.816;2023-04-15T12:37:07;13.80;70.40
546;DHT22;259;53.304;9.816;2023-04-15T12:39:36;13.80;70.20
546;DHT22;259;53.304;9.816;2023-04-15T12:42:05;13.90;70.40
546;DHT22;259;53.304;9.816;2023-04-15T12:44:32;13.90;70.30
546;DHT22;259;53.304;9.816;2023-04-15T12:46:58;13.90;70.40
546;DHT22;259;53.304;9.816;2023-04-15T12:49:25;13.90;70.50
546;DHT22;259;53.304;9.816;2023-04-15T12:51:52;14.00;70.50
546;DHT22;259;53.304;9.816;2023-04-15T12:54:19;14.00;69.80
546;DHT22;259;53.304;9.816;2023-04-15T12:56:47;14.00;69.70
546;DHT22;259;53.304;9.816;2023-04-15T12:59:15;14.10;69.80
546;DHT22;259;53.304;9.816;2023-04-15T13:01:42;14.10;69.60
546;DHT22;259;53.304;9.816;2023-04-15T13:04:07;14.10;69.40
546;DHT22;259;53.304;9.816;2023-04-15T13:06:33;14.20;69.90
546;DHT22;259;53.304;9.816;2023-04-15T13:08:59;14.20;69.90
546;DHT22;259;53.304;9.816;2023-04-15T13:11:26;14.20;69.80
546;DHT22;259;53.304;9.816;2023-04-15T13:13:55;14.20;69.80
546;DHT22;259;53.304;9.816;2023-04-15T13:16:22;14.30;69.80
546;DHT22;259;53.304;9.816;2023-04-15T13:18:48;14.20;69.80
546;DHT22;259;53.304;9.816;2023-04-15T13:21:15;14.20;69.90
546;DHT22;259;53.304;9.816;2023-04-15T13:23:41;14.20;70.10
546;DHT22;259;53.304;9.816;2023-04-15T13:26:07;14.20;70.10
546;DHT22;259;53.304;9.816;2023-04-15T13:28:33;14.20;70.10
546;DHT22;259;53.304;9.816;2023-04-15T13:30:59;14.20;70.40
546;DHT22;259;53.304;9.816;2023-04-15T13:33:25;14.20;70.50
546;DHT22;259;53.304;9.816;2023-04-15T13:35:51;14.20;70.30
546;DHT22;259;53.304;9.816;2023-04-15T13:38:17;14.20;70.30
546;DHT22;259;53.304;9.816;2023-04-15T13:40:43;14.20;70.30
546;DHT22;259;53.304;9.816;2023-04-15T13:43:08;14.20;70.30
546;DHT22;259;53.304;9.816;2023-04-15T13:45:34;14.20;70.30
546;DHT22;259;53.304;9.816;2023-04-15T13:48:00;14.20;70.30
546;DHT22;259;53.304;9.816;2023-04-15T13:50:26;14.20;70.30
546;DHT22;259;53.304;9.816;2023-04-15T13:52:52;14.20;70.30
546;DHT22;259;53.304;9.816;2023-04-15T13:55:18;14.20;70.30
546;DHT22;259;53.304;9.816;2023-04-15T13:57:44;14.20;70.40
546;DHT22;259;53.304;9.816;2023-04-15T14:00:10;14.20;70.40
546;DHT22;259;53.304;9.816;2023-04-15T14:02:38;14.20;70.60
546;DHT22;259;53.304;9.816;2023-04-15T14:05:04;14.20;70.60
546;DHT22;259;53.304;9.816;2023-04-15T14:07:30;14.20;70.60
546;DHT22;259;53.304;9.816;2023-04-15T14:09:56;14.20;70.70
546;DHT22;259;53.304;9.816;2023-04-15T14:12:22;14.20;70.60
546;DHT22;259;53.304;9.816;2023-04-15T14:14:48;14.20;70.60
546;DHT22;259;53.304;9.816;2023-04-15T14:17:13;14.20;70.80
546;DHT22;259;53.304;9.816;2023-04-15T14:19:39;14.20;70.80
546;DHT22;259;53.304;9.816;2023-04-15T14:22:05;14.20;70.90
546;DHT22;259;53.304;9.816;2023-04-15T14:24:31;14.20;70.90
546;DHT22;259;53.304;9.816;2023-04-15T14:26:57;14.20;71.00
546;DHT22;259;53.304;9.816;2023-04-15T14:29:23;14.20;70.90
546;DHT22;259;53.304;9.816;2023-04-15T14:31:49;14.20;71.00
546;DHT22;259;53.304;9.816;2023-04-15T14:34:15;14.20;71.00
546;DHT22;259;53.304;9.816;2023-04-15T14:36:41;14.20;71.00
546;DHT22;259;53.304;9.816;2023-04-15T14:39:07;14.20;71.00
546;DHT22;259;53.304;9.816;2023-04-15T14:41:33;14.20;71.00
546;DHT22;259;53.304;9.816;2023-04-15T14:43:59;14.20;71.00
546;DHT22;259;53.304;9.816;2023-04-15T14:46:25;14.20;71.00
546;DHT22;259;53.304;9.816;2023-04-15T14:48:51;14.20;70.90
546;DHT22;259;53.304;9.816;2023-04-15T14:51:17;14.20;71.00
546;DHT22;259;53.304;9.816;2023-04-15T14:53:43;14.20;71.00
546;DHT22;259;53.304;9.816;2023-04-15T14:56:10;14.20;71.00
546;DHT22;259;53.304;9.816;2023-04-15T14:58:35;14.20;71.10
546;DHT22;259;53.304;9.816;2023-04-15T15:01:02;14.20;71.10
546;DHT22;259;53.304;9.816;2023-04-15T15:03:28;14.20;71.00
546;DHT22;259;53.304;9.816;2023-04-15T15:05:54;14.20;71.10
546;DHT22;259;53.304;9.816;2023-04-15T15:08:22;14.20;71.00
546;DHT22;259;53.304;9.816;2023-04-15T15:10:47;14.20;71.10
546;DHT22;259;53.304;9.816;2023-04-15T15:13:13;14.30;71.10
546;DHT22;259;53.304;9.816;2023-04-15T15:15:40;14.30;71.20
546;DHT22;259;53.304;9.816;2023-04-15T15:18:05;14.30;71.20
546;DHT22;259;53.304;9.816;2023-04-15T15:20:32;14.30;71.20
546;DHT22;259;53.304;9.816;2023-04-15T15:22:59;14.30;71.10
546;DHT22;259;53.304;9.816;2023-04-15T15:25:25;14.30;71.30
546;DHT22;259;53.304;9.816;2023-04-15T15:27:50;14.30;71.30
546;DHT22;259;53.304;9.816;2023-04-15T15:30:16;14.30;71.20
546;DHT22;259;53.304;9.816;2023-04-15T15:32:42;14.30;71.30
546;DHT22;259;53.304;9.816;2023-04-15T15:35:09;14.40;71.40
546;DHT22;259;53.304;9.816;2023-04-15T15:37:35;14.40;71.30
546;DHT22;259;53.304;9.816;2023-04-15T15:40:04;14.40;71.40
546;DHT22;259;53.304;9.816;2023-04-15T15:42:31;14.40;71.20
546;DHT22;259;53.304;9.816;2023-04-15T15:44:57;14.40;71.20
546;DHT22;259;53.304;9.816;2023-04-15T15:47:23;14.30;71.10
546;DHT22;259;53.304;9.816;2023-04-15T15:49:51;14.40;71.30
546;DHT22;259;53.304;9.816;2023-04-15T15:52:17;14.40;71.20
546;DHT22;259;53.304;9.816;2023-04-15T15:54:42;14.40;71.30
546;DHT22;259;53.304;9.816;2023-04-15T15:57:08;14.40;71.30
546;DHT22;259;53.304;9.816;2023-04-15T15:59:35;14.40;71.20
546;DHT22;259;53.304;9.816;2023-04-15T16:02:09;14.40;71.10
546;DHT22;259;53.304;9.816;2023-04-15T16:04:36;14.40;71.30
546;DHT22;259;53.304;9.816;2023-04-15T16:07:02;14.40;71.30
546;DHT22;259;53.304;9.816;2023-04-15T16:09:29;14.40;71.20
546;DHT22;259;53.304;9.816;2023-04-15T16:11:55;14.40;71.20
546;DHT22;259;53.304;9.816;2023-04-15T16:14:22;14.40;71.30
546;DHT22;259;53.304;9.816;2023-04-15T16:16:49;14.40;71.30
546;DHT22;259;53.304;9.816;2023-04-15T16:19:15;14.40;71.30
546;DHT22;259;53.304;9.816;2023-04-15T16:21:42;14.40;71.40
546;DHT22;259;53.304;9.816;2023-04-15T16:24:09;14.40;71.40
546;DHT22;259;53.304;9.816;2023-04-15T16:26:35;14.30;71.30
546;DHT22;259;53.304;9.816;2023-04-15T16:29:01;14.30;71.30
546;DHT22;259;53.304;9.816;2023-04-15T16:31:27;14.30;71.30
546;DHT22;259;53.304;9.816;2023-04-15T16:33:52;14.30;71.30
546;DHT22;259;53.304;9.816;2023-04-15T16:36:18;14.30;71.30
546;DHT22;259;53.304;9.816;2023-04-15T16:38:44;14.30;71.40
546;DHT22;259;53.304;9.816;2023-04-15T16:41:13;14.30;71.40
546;DHT22;259;53.304;9.816;2023-04-15T16:43:39;14.30;71.40
546;DHT22;259;53.304;9.816;2023-04-15T16:46:05;14.30;71.40
546;DHT22;259;53.304;9.816;2023-04-15T16:48:32;14.30;71.40
546;DHT22;259;53.304;9.816;2023-04-15T16:50:58;14.30;71.50
546;DHT22;259;53.304;9.816;2023-04-15T16:53:23;14.30;71.50